sensor_id;sensor_type;location;lat;lon;timestamp;pressure;altitude;pressure_sealevel;temperature;humidity
74103;BME280;62853;46.166;3.640;2023-05-25T00:01:08;102379.31;;;11.03;100.00
74103;BME280;62853;46.166;3.640;2023-05-25T00:03:33;102373.09;;;11.05;100.00
74103;BME280;62853;46.166;3.640;2023-05-25T00:06:00;102378.75;;;10.93;100.00
74103;BME280;62853;46.166;3.640;2023-05-25T00:08:26;102371.56;;;10.98;100.00
74103;BME280;62853;46.166;3.640;2023-05-25T00:10:51;102373.31;;;10.97;100.00
74103;BME280;62853;46.166;3.640;2023-05-25T00:13:16;102374.53;;;10.87;100.00
74103;BME280;62853;46.166;3.640;2023-05-25T00:15:42;102377.69;;;10.98;100.00
74103;BME280;62853;46.166;3.640;2023-05-25T00:18:07;102384.06;;;10.91;100.00
74103;BME280;62853;46.166;3.640;2023-05-25T00:20:33;102378.09;;;10.86;100.00
74103;BME280;62853;46.166;3.640;2023-05-25T00:22:59;102383.66;;;10.75;100.00
74103;BME280;62853;46.166;3.640;2023-05-25T00:25:26;102381.78;;;10.79;100.00
74103;BME280;62853;46.166;3.640;2023-05-25T00:27:52;102379.28;;;10.76;100.00
74103;BME280;62853;46.166;3.640;2023-05-25T00:30:17;102388.34;;;10.66;100.00
74103;BME280;62853;46.166;3.640;2023-05-25T00:32:42;102390.78;;;10.73;100.00
74103;BME280;62853;46.166;3.640;2023-05-25T00:35:08;102387.44;;;10.67;100.00
74103;BME280;62853;46.166;3.640;2023-05-25T00:37:33;102381.16;;;10.71;100.00
74103;BME280;62853;46.166;3.640;2023-05-25T00:39:59;102379.47;;;10.70;100.00
74103;BME280;62853;46.166;3.640;2023-05-25T00:42:24;102386.44;;;10.71;100.00
74103;BME280;62853;46.166;3.640;2023-05-25T00:44:52;102388.09;;;10.75;100.00
74103;BME280;62853;46.166;3.640;2023-05-25T00:47:17;102387.31;;;10.71;100.00
74103;BME280;62853;46.166;3.640;2023-05-25T00:49:43;102388.94;;;10.75;100.00
74103;BME280;62853;46.166;3.640;2023-05-25T00:52:11;102396.09;;;10.72;100.00
74103;BME280;62853;46.166;3.640;2023-05-25T00:57:47;102388.91;;;10.77;100.00
74103;BME280;62853;46.166;3.640;2023-05-25T01:00:15;102387.13;;;10.77;100.00
74103;BME280;62853;46.166;3.640;2023-05-25T01:02:43;102388.19;;;10.72;100.00
74103;BME280;62853;46.166;3.640;2023-05-25T01:05:10;102394.31;;;10.72;100.00
74103;BME280;62853;46.166;3.640;2023-05-25T01:07:37;102400.41;;;10.74;100.00
74103;BME280;62853;46.166;3.640;2023-05-25T01:10:08;102402.16;;;10.74;100.00
74103;BME280;62853;46.166;3.640;2023-05-25T01:12:36;102391.78;;;10.69;100.00
74103;BME280;62853;46.166;3.640;2023-05-25T01:15:03;102398.75;;;10.70;100.00
74103;BME280;62853;46.166;3.640;2023-05-25T01:17:29;102400.47;;;10.73;100.00
74103;BME280;62853;46.166;3.640;2023-05-25T01:19:54;102395.03;;;10.77;100.00
74103;BME280;62853;46.166;3.640;2023-05-25T01:22:36;102396.09;;;10.72;100.00
74103;BME280;62853;46.166;3.640;2023-05-25T01:25:26;102402.31;;;10.69;100.00
74103;BME280;62853;46.166;3.640;2023-05-25T01:28:16;102404.25;;;10.64;100.00
74103;BME280;62853;46.166;3.640;2023-05-25T01:30:46;102407.81;;;10.61;100.00
74103;BME280;62853;46.166;3.640;2023-05-25T01:33:13;102400.03;;;10.57;100.00
74103;BME280;62853;46.166;3.640;2023-05-25T01:35:40;102410.81;;;10.49;100.00
74103;BME280;62853;46.166;3.640;2023-05-25T01:38:06;102414.66;;;10.67;100.00
74103;BME280;62853;46.166;3.640;2023-05-25T01:40:32;102414.44;;;10.45;100.00
74103;BME280;62853;46.166;3.640;2023-05-25T01:42:57;102414.50;;;10.42;100.00
74103;BME280;62853;46.166;3.640;2023-05-25T01:45:23;102413.63;;;10.43;100.00
74103;BME280;62853;46.166;3.640;2023-05-25T01:48:04;102425.09;;;10.40;100.00
74103;BME280;62853;46.166;3.640;2023-05-25T01:53:21;102428.81;;;10.33;100.00
74103;BME280;62853;46.166;3.640;2023-05-25T01:56:13;102428.56;;;10.42;100.00
74103;BME280;62853;46.166;3.640;2023-05-25T01:58:44;102423.50;;;10.35;100.00
74103;BME280;62853;46.166;3.640;2023-05-25T02:01:14;102425.09;;;10.40;100.00
74103;BME280;62853;46.166;3.640;2023-05-25T02:03:41;102433.09;;;10.37;100.00
74103;BME280;62853;46.166;3.640;2023-05-25T02:06:09;102433.97;;;10.38;100.00
74103;BME280;62853;46.166;3.640;2023-05-25T02:08:34;102431.53;;;10.29;100.00
74103;BME280;62853;46.166;3.640;2023-05-25T02:11:00;102430.69;;;10.28;100.00
74103;BME280;62853;46.166;3.640;2023-05-25T02:13:26;102426.41;;;10.24;100.00
74103;BME280;62853;46.166;3.640;2023-05-25T02:15:51;102431.53;;;10.29;100.00
74103;BME280;62853;46.166;3.640;2023-05-25T02:18:17;102431.72;;;10.22;100.00
74103;BME280;62853;46.166;3.640;2023-05-25T02:20:43;102425.69;;;10.19;100.00
74103;BME280;62853;46.166;3.640;2023-05-25T02:23:09;102424.81;;;10.18;100.00
74103;BME280;62853;46.166;3.640;2023-05-25T02:25:34;102426.63;;;10.16;100.00
74103;BME280;62853;46.166;3.640;2023-05-25T02:28:00;102426.63;;;10.16;100.00
74103;BME280;62853;46.166;3.640;2023-05-25T02:30:25;102424.81;;;10.18;100.00
74103;BME280;62853;46.166;3.640;2023-05-25T02:32:50;102424.09;;;10.12;100.00
74103;BME280;62853;46.166;3.640;2023-05-25T02:35:18;102420.66;;;10.10;100.00
74103;BME280;62853;46.166;3.640;2023-05-25T02:37:43;102425.25;;;10.01;100.00
74103;BME280;62853;46.166;3.640;2023-05-25T02:40:10;102423.56;;;10.00;100.00
74103;BME280;62853;46.166;3.640;2023-05-25T02:42:35;102420.25;;;9.92;100.00
74103;BME280;62853;46.166;3.640;2023-05-25T02:45:01;102419.41;;;9.92;100.00
74103;BME280;62853;46.166;3.640;2023-05-25T02:47:26;102421.16;;;9.91;100.00
74103;BME280;62853;46.166;3.640;2023-05-25T02:49:51;102409.19;;;9.79;100.00
74103;BME280;62853;46.166;3.640;2023-05-25T02:52:17;102424.75;;;9.89;100.00
74103;BME280;62853;46.166;3.640;2023-05-25T02:54:42;102422.97;;;9.89;100.00
74103;BME280;62853;46.166;3.640;2023-05-25T02:57:07;102424.13;;;9.79;100.00
74103;BME280;62853;46.166;3.640;2023-05-25T02:59:34;102424.81;;;9.85;100.00
74103;BME280;62853;46.166;3.640;2023-05-25T03:01:59;102421.22;;;9.88;100.00
74103;BME280;62853;46.166;3.640;2023-05-25T03:04:25;102429.53;;;9.73;100.00
74103;BME280;62853;46.166;3.640;2023-05-25T03:06:50;102431.34;;;9.71;100.00
74103;BME280;62853;46.166;3.640;2023-05-25T03:09:16;102432.94;;;9.76;100.00
74103;BME280;62853;46.166;3.640;2023-05-25T03:11:41;102428.63;;;9.74;100.00
74103;BME280;62853;46.166;3.640;2023-05-25T03:14:08;102428.59;;;9.75;100.00
74103;BME280;62853;46.166;3.640;2023-05-25T03:16:34;102432.59;;;9.90;100.00
74103;BME280;62853;46.166;3.640;2023-05-25T03:19:01;102439.97;;;9.76;100.00
74103;BME280;62853;46.166;3.640;2023-05-25T03:21:27;102432.13;;;9.74;100.00
74103;BME280;62853;46.166;3.640;2023-05-25T03:23:52;102444.66;;;9.64;100.00
74103;BME280;62853;46.166;3.640;2023-05-25T03:26:17;102456.66;;;9.75;100.00
74103;BME280;62853;46.166;3.640;2023-05-25T03:28:43;102443.84;;;9.61;100.00
74103;BME280;62853;46.166;3.640;2023-05-25T03:31:08;102454.38;;;9.61;100.00
74103;BME280;62853;46.166;3.640;2023-05-25T03:33:34;102455.28;;;9.61;100.00
74103;BME280;62853;46.166;3.640;2023-05-25T03:36:00;102462.78;;;9.77;100.00
74103;BME280;62853;46.166;3.640;2023-05-25T03:38:25;102450.44;;;9.79;100.00
74103;BME280;62853;46.166;3.640;2023-05-25T03:40:51;102454.31;;;9.64;100.00
74103;BME280;62853;46.166;3.640;2023-05-25T03:43:17;102461.56;;;9.54;100.00
74103;BME280;62853;46.166;3.640;2023-05-25T03:45:42;102467.53;;;9.61;100.00
74103;BME280;62853;46.166;3.640;2023-05-25T03:48:08;102464.41;;;9.81;100.00
74103;BME280;62853;46.166;3.640;2023-05-25T03:50:33;102453.25;;;9.71;100.00
74103;BME280;62853;46.166;3.640;2023-05-25T03:52:59;102455.56;;;9.85;100.00
74103;BME280;62853;46.166;3.640;2023-05-25T03:55:24;102461.72;;;9.84;100.00
74103;BME280;62853;46.166;3.640;2023-05-25T03:57:49;102466.19;;;9.80;100.00
74103;BME280;62853;46.166;3.640;2023-05-25T04:00:15;102470.75;;;9.74;100.00
74103;BME280;62853;46.166;3.640;2023-05-25T04:02:41;102471.50;;;9.79;100.00
74103;BME280;62853;46.166;3.640;2023-05-25T04:05:06;102471.13;;;9.93;100.00
74103;BME280;62853;46.166;3.640;2023-05-25T04:07:32;102473.84;;;9.90;100.00
74103;BME280;62853;46.166;3.640;2023-05-25T04:09:57;102479.97;;;9.90;100.00
74103;BME280;62853;46.166;3.640;2023-05-25T04:12:24;102484.59;;;9.80;100.00
74103;BME280;62853;46.166;3.640;2023-05-25T04:14:50;102485.31;;;9.87;100.00
74103;BME280;62853;46.166;3.640;2023-05-25T04:17:16;102491.31;;;9.92;100.00
74103;BME280;62853;46.166;3.640;2023-05-25T04:19:43;102486.88;;;9.94;100.00
74103;BME280;62853;46.166;3.640;2023-05-25T04:22:08;102480.41;;;10.08;100.00
74103;BME280;62853;46.166;3.640;2023-05-25T04:24:34;102484.03;;;10.03;100.00
74103;BME280;62853;46.166;3.640;2023-05-25T04:26:59;102484.88;;;10.04;100.00
74103;BME280;62853;46.166;3.640;2023-05-25T04:29:26;102493.72;;;10.01;100.00
74103;BME280;62853;46.166;3.640;2023-05-25T04:31:52;102489.38;;;10.00;100.00
74103;BME280;62853;46.166;3.640;2023-05-25T04:34:19;102488.28;;;10.08;100.00
74103;BME280;62853;46.166;3.640;2023-05-25T04:36:45;102482.25;;;10.04;100.00
74103;BME280;62853;46.166;3.640;2023-05-25T04:39:12;102483.81;;;10.11;100.00
74103;BME280;62853;46.166;3.640;2023-05-25T04:41:37;102484.59;;;10.15;100.00
74103;BME280;62853;46.166;3.640;2023-05-25T04:44:03;102487.06;;;10.21;100.00
74103;BME280;62853;46.166;3.640;2023-05-25T04:46:29;102484.31;;;10.26;100.00
74103;BME280;62853;46.166;3.640;2023-05-25T04:48:55;102481.44;;;10.35;100.00
74103;BME280;62853;46.166;3.640;2023-05-25T04:51:21;102492.09;;;10.29;100.00
74103;BME280;62853;46.166;3.640;2023-05-25T04:53:47;102494.63;;;10.35;100.00
74103;BME280;62853;46.166;3.640;2023-05-25T04:56:13;102495.59;;;10.32;100.00
74103;BME280;62853;46.166;3.640;2023-05-25T04:58:38;102495.41;;;10.38;100.00
74103;BME280;62853;46.166;3.640;2023-05-25T05:01:03;102497.06;;;10.42;100.00
74103;BME280;62853;46.166;3.640;2023-05-25T05:03:29;102495.97;;;10.50;100.00
74103;BME280;62853;46.166;3.640;2023-05-25T05:05:55;102502.97;;;10.51;100.00
74103;BME280;62853;46.166;3.640;2023-05-25T05:08:21;102508.13;;;10.54;100.00
74103;BME280;62853;46.166;3.640;2023-05-25T05:10:46;102514.09;;;10.60;100.00
74103;BME280;62853;46.166;3.640;2023-05-25T05:13:11;102510.44;;;10.66;100.00
74103;BME280;62853;46.166;3.640;2023-05-25T05:15:38;102516.91;;;10.86;100.00
74103;BME280;62853;46.166;3.640;2023-05-25T05:18:03;102509.06;;;10.83;100.00
74103;BME280;62853;46.166;3.640;2023-05-25T05:20:30;102514.47;;;10.79;100.00
74103;BME280;62853;46.166;3.640;2023-05-25T05:22:55;102515.16;;;10.86;100.00
74103;BME280;62853;46.166;3.640;2023-05-25T05:25:21;102520.31;;;10.89;100.00
74103;BME280;62853;46.166;3.640;2023-05-25T05:27:46;102519.25;;;10.96;100.00
74103;BME280;62853;46.166;3.640;2023-05-25T05:30:12;102520.75;;;11.05;100.00
74103;BME280;62853;46.166;3.640;2023-05-25T05:32:37;102526.09;;;11.32;100.00
74103;BME280;62853;46.166;3.640;2023-05-25T05:35:02;102527.47;;;11.99;100.00
74103;BME280;62853;46.166;3.640;2023-05-25T05:37:28;102522.75;;;12.82;100.00
74103;BME280;62853;46.166;3.640;2023-05-25T05:39:53;102531.66;;;13.51;100.00
74103;BME280;62853;46.166;3.640;2023-05-25T05:42:19;102532.09;;;14.05;100.00
74103;BME280;62853;46.166;3.640;2023-05-25T05:44:44;102531.66;;;14.55;100.00
74103;BME280;62853;46.166;3.640;2023-05-25T05:47:10;102538.09;;;14.89;100.00
74103;BME280;62853;46.166;3.640;2023-05-25T05:49:36;102544.38;;;15.07;100.00
74103;BME280;62853;46.166;3.640;2023-05-25T05:52:03;102541.22;;;15.37;100.00
74103;BME280;62853;46.166;3.640;2023-05-25T05:54:29;102550.81;;;15.39;100.00
74103;BME280;62853;46.166;3.640;2023-05-25T05:56:54;102551.25;;;14.92;100.00
74103;BME280;62853;46.166;3.640;2023-05-25T05:59:20;102562.47;;;14.58;100.00
74103;BME280;62853;46.166;3.640;2023-05-25T06:01:46;102559.91;;;14.77;100.00
74103;BME280;62853;46.166;3.640;2023-05-25T06:04:11;102566.75;;;14.82;100.00
74103;BME280;62853;46.166;3.640;2023-05-25T06:06:37;102568.94;;;14.52;100.00
74103;BME280;62853;46.166;3.640;2023-05-25T06:09:04;102569.56;;;14.16;100.00
74103;BME280;62853;46.166;3.640;2023-05-25T06:11:32;102561.91;;;13.88;100.00
74103;BME280;62853;46.166;3.640;2023-05-25T06:13:59;102567.72;;;13.75;100.00
74103;BME280;62853;46.166;3.640;2023-05-25T06:16:24;102569.91;;;13.64;100.00
74103;BME280;62853;46.166;3.640;2023-05-25T06:18:50;102568.44;;;13.57;100.00
74103;BME280;62853;46.166;3.640;2023-05-25T06:21:15;102571.25;;;13.52;100.00
74103;BME280;62853;46.166;3.640;2023-05-25T06:23:41;102583.59;;;13.53;100.00
74103;BME280;62853;46.166;3.640;2023-05-25T06:26:07;102574.91;;;13.50;100.00
74103;BME280;62853;46.166;3.640;2023-05-25T06:28:32;102574.13;;;13.48;100.00
74103;BME280;62853;46.166;3.640;2023-05-25T06:30:58;102577.31;;;13.56;100.00
74103;BME280;62853;46.166;3.640;2023-05-25T06:33:23;102576.84;;;13.68;100.00
74103;BME280;62853;46.166;3.640;2023-05-25T06:35:49;102580.16;;;13.73;100.00
74103;BME280;62853;46.166;3.640;2023-05-25T06:38:14;102581.56;;;13.82;100.00
74103;BME280;62853;46.166;3.640;2023-05-25T06:40:40;102573.38;;;13.88;100.00
74103;BME280;62853;46.166;3.640;2023-05-25T06:43:06;102578.03;;;14.04;100.00
74103;BME280;62853;46.166;3.640;2023-05-25T06:45:31;102571.59;;;14.09;100.00
74103;BME280;62853;46.166;3.640;2023-05-25T06:47:56;102581.38;;;14.29;100.00
74103;BME280;62853;46.166;3.640;2023-05-25T06:50:22;102582.53;;;14.65;100.00
74103;BME280;62853;46.166;3.640;2023-05-25T06:52:47;102585.72;;;15.13;100.00
74103;BME280;62853;46.166;3.640;2023-05-25T06:55:13;102581.75;;;16.48;100.00
74103;BME280;62853;46.166;3.640;2023-05-25T06:57:39;102570.50;;;18.50;99.21
74103;BME280;62853;46.166;3.640;2023-05-25T07:00:05;102577.66;;;20.03;82.89
74103;BME280;62853;46.166;3.640;2023-05-25T07:02:35;102586.88;;;19.99;86.07
74103;BME280;62853;46.166;3.640;2023-05-25T07:05:00;102579.31;;;19.51;78.65
74103;BME280;62853;46.166;3.640;2023-05-25T07:07:28;102584.47;;;19.82;82.69
74103;BME280;62853;46.166;3.640;2023-05-25T07:09:53;102579.38;;;21.70;71.48
74103;BME280;62853;46.166;3.640;2023-05-25T07:12:19;102574.41;;;22.59;60.59
74103;BME280;62853;46.166;3.640;2023-05-25T07:14:45;102584.91;;;23.85;56.21
74103;BME280;62853;46.166;3.640;2023-05-25T07:17:13;102580.31;;;24.60;54.37
74103;BME280;62853;46.166;3.640;2023-05-25T07:19:38;102575.16;;;25.18;51.47
74103;BME280;62853;46.166;3.640;2023-05-25T07:22:04;102574.69;;;25.83;46.71
74103;BME280;62853;46.166;3.640;2023-05-25T07:24:29;102578.28;;;27.25;44.79
74103;BME280;62853;46.166;3.640;2023-05-25T07:26:55;102570.81;;;28.35;43.89
74103;BME280;62853;46.166;3.640;2023-05-25T07:29:20;102580.28;;;28.92;39.10
74103;BME280;62853;46.166;3.640;2023-05-25T07:31:48;102577.41;;;28.59;40.66
74103;BME280;62853;46.166;3.640;2023-05-25T07:34:13;102591.06;;;27.87;40.02
74103;BME280;62853;46.166;3.640;2023-05-25T07:36:39;102581.41;;;26.65;44.16
74103;BME280;62853;46.166;3.640;2023-05-25T07:39:04;102580.53;;;25.69;43.03
74103;BME280;62853;46.166;3.640;2023-05-25T07:41:30;102585.53;;;24.30;44.29
74103;BME280;62853;46.166;3.640;2023-05-25T07:43:55;102596.53;;;24.06;47.02
74103;BME280;62853;46.166;3.640;2023-05-25T07:46:20;102584.63;;;25.73;46.09
74103;BME280;62853;46.166;3.640;2023-05-25T07:48:49;102583.66;;;26.13;43.05
74103;BME280;62853;46.166;3.640;2023-05-25T07:51:14;102580.75;;;27.19;41.58
74103;BME280;62853;46.166;3.640;2023-05-25T07:53:40;102586.59;;;28.14;37.93
74103;BME280;62853;46.166;3.640;2023-05-25T07:56:07;102589.09;;;28.86;39.07
74103;BME280;62853;46.166;3.640;2023-05-25T07:58:32;102582.53;;;29.97;35.91
74103;BME280;62853;46.166;3.640;2023-05-25T08:00:58;102589.53;;;30.80;34.70
74103;BME280;62853;46.166;3.640;2023-05-25T08:03:23;102582.47;;;31.10;34.13
74103;BME280;62853;46.166;3.640;2023-05-25T08:05:48;102587.03;;;30.70;33.84
74103;BME280;62853;46.166;3.640;2023-05-25T08:08:15;102592.97;;;29.26;35.14
74103;BME280;62853;46.166;3.640;2023-05-25T08:10:40;102597.69;;;27.39;37.31
74103;BME280;62853;46.166;3.640;2023-05-25T08:13:05;102600.50;;;26.91;37.70
74103;BME280;62853;46.166;3.640;2023-05-25T08:15:31;102600.09;;;25.90;40.57
74103;BME280;62853;46.166;3.640;2023-05-25T08:17:56;102604.44;;;25.33;39.77
74103;BME280;62853;46.166;3.640;2023-05-25T08:20:22;102600.31;;;24.57;42.27
74103;BME280;62853;46.166;3.640;2023-05-25T08:22:49;102606.25;;;26.02;40.63
74103;BME280;62853;46.166;3.640;2023-05-25T08:25:18;102607.66;;;28.02;38.82
74103;BME280;62853;46.166;3.640;2023-05-25T08:27:43;102593.69;;;29.44;35.33
74103;BME280;62853;46.166;3.640;2023-05-25T08:30:09;102607.63;;;29.07;36.06
74103;BME280;62853;46.166;3.640;2023-05-25T08:32:34;102601.63;;;29.21;35.02
74103;BME280;62853;46.166;3.640;2023-05-25T08:35:00;102611.75;;;28.06;35.72
74103;BME280;62853;46.166;3.640;2023-05-25T08:37:27;102606.50;;;28.83;36.77
74103;BME280;62853;46.166;3.640;2023-05-25T08:39:53;102606.50;;;28.31;34.51
74103;BME280;62853;46.166;3.640;2023-05-25T08:42:19;102609.41;;;28.11;35.24
74103;BME280;62853;46.166;3.640;2023-05-25T08:44:44;102603.31;;;28.88;36.89
74103;BME280;62853;46.166;3.640;2023-05-25T08:47:11;102601.72;;;29.71;35.64
74103;BME280;62853;46.166;3.640;2023-05-25T08:49:39;102606.44;;;29.60;34.05
74103;BME280;62853;46.166;3.640;2023-05-25T08:52:12;102608.16;;;28.24;38.08
74103;BME280;62853;46.166;3.640;2023-05-25T08:54:42;102603.47;;;28.86;37.32
74103;BME280;62853;46.166;3.640;2023-05-25T08:57:30;102614.09;;;28.53;38.05
74103;BME280;62853;46.166;3.640;2023-05-25T09:02:57;102625.19;;;25.01;41.38
74103;BME280;62853;46.166;3.640;2023-05-25T09:05:24;102626.81;;;23.44;44.79
74103;BME280;62853;46.166;3.640;2023-05-25T09:07:49;102629.22;;;22.67;44.50
74103;BME280;62853;46.166;3.640;2023-05-25T09:10:16;102622.56;;;22.38;48.17
74103;BME280;62853;46.166;3.640;2023-05-25T09:12:42;102621.38;;;22.42;48.10
74103;BME280;62853;46.166;3.640;2023-05-25T09:15:10;102627.19;;;22.00;50.09
74103;BME280;62853;46.166;3.640;2023-05-25T09:17:36;102612.47;;;21.82;48.79
74103;BME280;62853;46.166;3.640;2023-05-25T09:20:02;102624.28;;;21.42;49.58
74103;BME280;62853;46.166;3.640;2023-05-25T09:22:28;102613.38;;;21.32;51.25
74103;BME280;62853;46.166;3.640;2023-05-25T09:24:53;102627.03;;;21.04;51.26
74103;BME280;62853;46.166;3.640;2023-05-25T09:27:21;102621.47;;;20.68;51.28
74103;BME280;62853;46.166;3.640;2023-05-25T09:29:48;102618.72;;;20.30;55.23
74103;BME280;62853;46.166;3.640;2023-05-25T09:32:18;102619.63;;;20.03;54.22
74103;BME280;62853;46.166;3.640;2023-05-25T09:34:44;102624.25;;;19.86;58.40
74103;BME280;62853;46.166;3.640;2023-05-25T09:37:12;102628.41;;;19.78;55.17
74103;BME280;62853;46.166;3.640;2023-05-25T09:39:42;102626.34;;;19.54;57.03
74103;BME280;62853;46.166;3.640;2023-05-25T09:42:08;102627.78;;;19.45;57.65
74103;BME280;62853;46.166;3.640;2023-05-25T09:44:34;102621.59;;;19.45;57.06
74103;BME280;62853;46.166;3.640;2023-05-25T09:47:00;102634.59;;;19.37;57.20
74103;BME280;62853;46.166;3.640;2023-05-25T09:49:25;102628.97;;;19.27;58.00
74103;BME280;62853;46.166;3.640;2023-05-25T09:51:51;102632.75;;;19.37;58.43
74103;BME280;62853;46.166;3.640;2023-05-25T09:54:17;102633.88;;;19.47;56.15
74103;BME280;62853;46.166;3.640;2023-05-25T09:56:43;102637.06;;;19.25;59.26
74103;BME280;62853;46.166;3.640;2023-05-25T09:59:10;102630.50;;;19.17;60.18
74103;BME280;62853;46.166;3.640;2023-05-25T10:01:36;102629.63;;;19.02;62.41
74103;BME280;62853;46.166;3.640;2023-05-25T10:04:01;102637.00;;;19.12;61.86
74103;BME280;62853;46.166;3.640;2023-05-25T10:06:27;102634.69;;;19.21;62.23
74103;BME280;62853;46.166;3.640;2023-05-25T10:08:55;102638.97;;;19.09;65.21
74103;BME280;62853;46.166;3.640;2023-05-25T10:11:23;102645.00;;;18.98;74.12
74103;BME280;62853;46.166;3.640;2023-05-25T10:13:49;102650.63;;;18.93;68.92
74103;BME280;62853;46.166;3.640;2023-05-25T10:16:29;102643.09;;;18.86;68.92
74103;BME280;62853;46.166;3.640;2023-05-25T10:19:00;102644.34;;;18.94;67.23
74103;BME280;62853;46.166;3.640;2023-05-25T10:21:29;102642.44;;;19.11;64.73
74103;BME280;62853;46.166;3.640;2023-05-25T10:24:02;102654.31;;;19.34;67.06
74103;BME280;62853;46.166;3.640;2023-05-25T10:26:32;102644.75;;;19.59;67.34
74103;BME280;62853;46.166;3.640;2023-05-25T10:29:01;102651.47;;;19.51;64.21
74103;BME280;62853;46.166;3.640;2023-05-25T10:31:29;102650.81;;;19.48;64.96
74103;BME280;62853;46.166;3.640;2023-05-25T10:33:56;102649.34;;;19.42;68.88
74103;BME280;62853;46.166;3.640;2023-05-25T10:36:22;102647.81;;;19.52;64.05
74103;BME280;62853;46.166;3.640;2023-05-25T10:38:50;102644.34;;;19.23;61.73
74103;BME280;62853;46.166;3.640;2023-05-25T10:41:17;102644.47;;;19.49;67.58
74103;BME280;62853;46.166;3.640;2023-05-25T10:43:43;102644.94;;;19.56;69.91
74103;BME280;62853;46.166;3.640;2023-05-25T10:46:09;102651.97;;;19.71;64.64
74103;BME280;62853;46.166;3.640;2023-05-25T10:48:47;102659.53;;;19.64;65.49
74103;BME280;62853;46.166;3.640;2023-05-25T10:51:13;102651.09;;;19.29;65.48
74103;BME280;62853;46.166;3.640;2023-05-25T10:53:43;102654.16;;;19.08;67.83
74103;BME280;62853;46.166;3.640;2023-05-25T10:56:09;102653.47;;;18.90;66.43
74103;BME280;62853;46.166;3.640;2023-05-25T10:58:40;102654.19;;;18.78;64.84
74103;BME280;62853;46.166;3.640;2023-05-25T11:01:06;102652.94;;;18.69;65.28
74103;BME280;62853;46.166;3.640;2023-05-25T11:09:04;102651.28;;;18.83;65.55
74103;BME280;62853;46.166;3.640;2023-05-25T11:17:19;102648.81;;;19.23;63.37
74103;BME280;62853;46.166;3.640;2023-05-25T11:19:52;102646.03;;;19.39;64.42
74103;BME280;62853;46.166;3.640;2023-05-25T11:24:52;102652.88;;;19.57;62.06
74103;BME280;62853;46.166;3.640;2023-05-25T11:27:22;102645.13;;;19.52;63.25
74103;BME280;62853;46.166;3.640;2023-05-25T11:29:50;102640.97;;;20.17;66.26
74103;BME280;62853;46.166;3.640;2023-05-25T11:32:16;102629.88;;;20.62;83.91
74103;BME280;62853;46.166;3.640;2023-05-25T11:34:42;102624.69;;;20.86;60.74
74103;BME280;62853;46.166;3.640;2023-05-25T11:37:11;102624.34;;;21.04;63.93
74103;BME280;62853;46.166;3.640;2023-05-25T11:39:38;102623.44;;;21.29;60.47
74103;BME280;62853;46.166;3.640;2023-05-25T11:42:04;102618.69;;;21.45;57.41
74103;BME280;62853;46.166;3.640;2023-05-25T11:44:33;102608.00;;;21.32;55.12
74103;BME280;62853;46.166;3.640;2023-05-25T11:47:04;102610.56;;;21.34;55.28
74103;BME280;62853;46.166;3.640;2023-05-25T11:49:33;102607.56;;;21.39;52.49
74103;BME280;62853;46.166;3.640;2023-05-25T11:52:05;102615.69;;;21.50;57.41
74103;BME280;62853;46.166;3.640;2023-05-25T11:54:31;102617.53;;;21.98;56.68
74103;BME280;62853;46.166;3.640;2023-05-25T11:56:57;102615.50;;;21.40;56.36
74103;BME280;62853;46.166;3.640;2023-05-25T11:59:29;102608.63;;;21.36;52.88
74103;BME280;62853;46.166;3.640;2023-05-25T12:01:58;102611.16;;;21.13;50.31
74103;BME280;62853;46.166;3.640;2023-05-25T12:04:25;102612.97;;;21.13;51.65
74103;BME280;62853;46.166;3.640;2023-05-25T12:06:50;102601.06;;;21.17;54.34
74103;BME280;62853;46.166;3.640;2023-05-25T12:09:20;102595.19;;;21.12;53.21
74103;BME280;62853;46.166;3.640;2023-05-25T12:11:48;102593.03;;;21.17;51.97
74103;BME280;62853;46.166;3.640;2023-05-25T12:14:16;102596.25;;;21.22;54.56
74103;BME280;62853;46.166;3.640;2023-05-25T12:16:42;102592.50;;;21.12;54.46
74103;BME280;62853;46.166;3.640;2023-05-25T12:19:09;102590.84;;;20.98;55.07
74103;BME280;62853;46.166;3.640;2023-05-25T12:21:36;102591.91;;;20.83;53.83
74103;BME280;62853;46.166;3.640;2023-05-25T12:24:02;102594.81;;;20.79;56.77
74103;BME280;62853;46.166;3.640;2023-05-25T12:26:30;102588.94;;;20.74;58.87
74103;BME280;62853;46.166;3.640;2023-05-25T12:29:06;102583.31;;;20.77;58.63
74103;BME280;62853;46.166;3.640;2023-05-25T12:31:33;102590.19;;;20.69;57.49
74103;BME280;62853;46.166;3.640;2023-05-25T12:34:10;102592.41;;;20.62;58.46
74103;BME280;62853;46.166;3.640;2023-05-25T12:36:49;102593.41;;;20.74;59.28
74103;BME280;62853;46.166;3.640;2023-05-25T12:44:27;102590.41;;;20.91;53.03
74103;BME280;62853;46.166;3.640;2023-05-25T12:46:56;102588.91;;;20.87;57.33
74103;BME280;62853;46.166;3.640;2023-05-25T12:49:33;102581.94;;;20.85;53.77
74103;BME280;62853;46.166;3.640;2023-05-25T12:52:00;102586.00;;;20.90;60.12
74103;BME280;62853;46.166;3.640;2023-05-25T12:54:43;102573.25;;;21.07;60.50
74103;BME280;62853;46.166;3.640;2023-05-25T12:57:16;102578.03;;;21.14;56.23
74103;BME280;62853;46.166;3.640;2023-05-25T12:59:44;102583.25;;;21.29;54.70
74103;BME280;62853;46.166;3.640;2023-05-25T13:02:10;102572.22;;;21.21;55.88
74103;BME280;62853;46.166;3.640;2023-05-25T13:04:37;102577.28;;;21.12;53.64
74103;BME280;62853;46.166;3.640;2023-05-25T13:07:04;102569.94;;;20.90;60.34
74103;BME280;62853;46.166;3.640;2023-05-25T13:09:30;102571.88;;;20.88;57.92
74103;BME280;62853;46.166;3.640;2023-05-25T13:11:57;102571.00;;;20.88;52.57